Time;durP1;ratioP1;P1;durP2;ratioP2;P2;SDS_P1;SDS_P2;PMS_P1;PMS_P2;Temp;Humidity;BMP_temperature;BMP_pressure;BME280_temperature;BME280_humidity;BME280_pressure;Samples;Min_cycle;Max_cycle;Signal;HPM_P1;HPM_P2
2021/05/21 00:00:24;;;;;;;499.95;352.50;;;;;;;;;;4984054;28;20054;-76
2021/05/21 00:02:50;;;;;;;501.15;357.23;;;;;;;;;;4993595;28;20478;-75
2021/05/21 00:05:16;;;;;;;497.40;354.02;;;;;;;;;;4996269;28;20050;-76
2021/05/21 00:07:42;;;;;;;497.20;353.55;;;;;;;;;;4975278;28;20072;-77
2021/05/21 00:10:08;;;;;;;499.23;355.70;;;;;;;;;;4995285;28;20018;-75
2021/05/21 00:12:35;;;;;;;501.73;361.95;;;;;;;;;;4994495;28;20376;-75
2021/05/21 00:15:01;;;;;;;502.75;356.75;;;;;;;;;;4989725;28;20054;-75
2021/05/21 00:17:27;;;;;;;506.80;357.95;;;;;;;;;;4999336;28;20087;-77
2021/05/21 00:19:52;;;;;;;506.95;360.63;;;;;;;;;;4980860;28;20023;-75
2021/05/21 00:22:18;;;;;;;514.85;361.67;;;;;;;;;;5000954;28;22658;-75
2021/05/21 00:24:44;;;;;;;501.55;354.38;;;;;;;;;;4997740;28;20050;-76
2021/05/21 00:27:10;;;;;;;500.10;354.35;;;;;;;;;;4992760;28;20042;-76
2021/05/21 00:29:36;;;;;;;499.88;357.27;;;;;;;;;;4988983;28;20101;-76
2021/05/21 00:32:02;;;;;;;512.47;361.08;;;;;;;;;;4994681;28;20101;-75
2021/05/21 00:34:28;;;;;;;501.15;357.25;;;;;;;;;;4997368;28;20049;-76
2021/05/21 00:36:54;;;;;;;532.05;370.85;;;;;;;;;;4992869;28;20061;-74
2021/05/21 00:39:20;;;;;;;516.15;366.45;;;;;;;;;;4994576;28;20026;-77
2021/05/21 00:41:47;;;;;;;514.90;372.80;;;;;;;;;;4973084;28;20336;-75
2021/05/21 00:44:13;;;;;;;512.42;366.35;;;;;;;;;;5000225;28;20129;-75
2021/05/21 00:46:39;;;;;;;511.10;363.38;;;;;;;;;;4997702;28;20041;-76
2021/05/21 00:49:05;;;;;;;513.03;371.40;;;;;;;;;;4994293;28;20352;-76
2021/05/21 00:51:32;;;;;;;515.95;366.17;;;;;;;;;;4971208;28;20386;-77
2021/05/21 00:53:58;;;;;;;511.75;367.38;;;;;;;;;;4996441;28;20443;-75
2021/05/21 00:56:24;;;;;;;514.63;372.58;;;;;;;;;;4995155;28;20019;-75
2021/05/21 00:58:51;;;;;;;516.42;366.10;;;;;;;;;;4979563;28;20034;-76
2021/05/21 01:01:17;;;;;;;522.13;371.13;;;;;;;;;;4991854;28;20436;-76
2021/05/21 01:03:43;;;;;;;535.92;383.30;;;;;;;;;;4990761;28;20078;-77
2021/05/21 01:06:10;;;;;;;537.28;380.58;;;;;;;;;;4979089;28;20032;-77
2021/05/21 01:08:37;;;;;;;572.83;410.63;;;;;;;;;;4974668;28;20022;-76
2021/05/21 01:11:07;;;;;;;551.72;396.40;;;;;;;;;;4992452;28;20093;-76
2021/05/21 01:13:35;;;;;;;;;;;;;;;;;;4995892;28;20375;-76
2021/05/21 01:16:01;;;;;;;530.00;366.20;;;;;;;;;;4980641;28;20012;-77
2021/05/21 01:18:27;;;;;;;542.30;383.27;;;;;;;;;;4978297;28;20404;-75
2021/05/21 01:20:53;;;;;;;525.58;369.42;;;;;;;;;;4979755;28;20017;-77
2021/05/21 01:23:19;;;;;;;541.35;393.08;;;;;;;;;;4992444;28;20022;-75
2021/05/21 01:25:45;;;;;;;527.72;377.67;;;;;;;;;;4978294;28;20034;-76
2021/05/21 01:28:14;;;;;;;519.17;365.48;;;;;;;;;;4989007;28;20117;-74
2021/05/21 01:30:40;;;;;;;525.97;372.38;;;;;;;;;;4996453;28;20057;-74
2021/05/21 01:33:07;;;;;;;510.15;366.17;;;;;;;;;;4979049;28;20106;-76
2021/05/21 01:35:34;;;;;;;512.78;369.52;;;;;;;;;;4996347;28;20026;-74
2021/05/21 01:38:00;;;;;;;511.27;366.67;;;;;;;;;;4996399;28;20022;-76
2021/05/21 01:40:28;;;;;;;509.02;367.35;;;;;;;;;;4977383;28;20022;-76
2021/05/21 01:42:55;;;;;;;508.63;367.58;;;;;;;;;;4997409;28;20060;-77
2021/05/21 01:45:21;;;;;;;502.67;363.88;;;;;;;;;;4992311;28;20045;-75
2021/05/21 01:47:47;;;;;;;498.65;354.05;;;;;;;;;;4996337;28;20018;-76
2021/05/21 01:50:13;;;;;;;495.70;352.92;;;;;;;;;;4973187;28;20015;-76
2021/05/21 01:52:40;;;;;;;495.45;351.23;;;;;;;;;;4996742;28;20030;-75
2021/05/21 01:55:06;;;;;;;496.83;357.50;;;;;;;;;;4995961;28;20344;-77
2021/05/21 01:57:35;;;;;;;502.60;362.70;;;;;;;;;;4974465;28;20057;-77
2021/05/21 02:00:01;;;;;;;486.23;348.00;;;;;;;;;;4975042;28;20501;-76
2021/05/21 02:02:27;;;;;;;487.52;351.10;;;;;;;;;;4989424;28;20406;-76
2021/05/21 02:04:53;;;;;;;491.23;354.92;;;;;;;;;;4994278;28;20125;-77
2021/05/21 02:07:19;;;;;;;482.73;340.00;;;;;;;;;;4993085;28;20022;-76
2021/05/21 02:09:54;;;;;;;486.08;341.75;;;;;;;;;;4978132;28;20030;-78
2021/05/21 02:12:21;;;;;;;476.58;330.45;;;;;;;;;;4996654;28;20156;-76
2021/05/21 02:14:47;;;;;;;476.48;329.35;;;;;;;;;;4976034;28;20023;-76
2021/05/21 02:17:13;;;;;;;477.73;329.17;;;;;;;;;;4971777;28;20033;-76
2021/05/21 02:19:39;;;;;;;477.98;333.85;;;;;;;;;;4991820;28;20026;-77
2021/05/21 02:22:06;;;;;;;481.27;335.33;;;;;;;;;;4993356;28;20428;-76
2021/05/21 02:24:32;;;;;;;486.35;340.50;;;;;;;;;;4980418;28;20034;-77
2021/05/21 02:26:58;;;;;;;478.65;334.50;;;;;;;;;;4996514;28;20018;-76
2021/05/21 02:29:24;;;;;;;481.02;337.48;;;;;;;;;;4991325;28;20089;-76
2021/05/21 02:31:50;;;;;;;482.05;340.85;;;;;;;;;;4991787;28;20432;-76
2021/05/21 02:34:16;;;;;;;480.73;339.33;;;;;;;;;;4989855;28;20661;-77
2021/05/21 02:36:42;;;;;;;480.05;335.10;;;;;;;;;;4995847;28;20054;-78
2021/05/21 02:39:08;;;;;;;485.45;343.40;;;;;;;;;;4977793;28;20034;-76
2021/05/21 02:41:34;;;;;;;482.50;340.27;;;;;;;;;;4993424;28;20029;-77
2021/05/21 02:44:00;;;;;;;482.67;342.27;;;;;;;;;;4991878;28;20075;-76
2021/05/21 02:46:26;;;;;;;481.92;332.58;;;;;;;;;;4997106;28;20033;-75
2021/05/21 02:48:52;;;;;;;478.27;335.35;;;;;;;;;;4996972;28;20102;-76
2021/05/21 02:51:18;;;;;;;481.15;337.70;;;;;;;;;;4998395;28;20042;-77
2021/05/21 02:53:44;;;;;;;482.20;338.08;;;;;;;;;;4992280;28;20062;-76
2021/05/21 02:56:10;;;;;;;479.42;337.40;;;;;;;;;;4991924;28;20157;-76
2021/05/21 02:58:36;;;;;;;479.55;333.48;;;;;;;;;;4998530;28;20125;-76
2021/05/21 03:01:03;;;;;;;476.23;330.67;;;;;;;;;;4979212;28;20144;-77
2021/05/21 03:03:29;;;;;;;477.42;327.77;;;;;;;;;;4997812;28;20491;-76
2021/05/21 03:05:55;;;;;;;494.70;336.20;;;;;;;;;;4979181;28;20034;-77
2021/05/21 03:08:22;;;;;;;483.42;339.20;;;;;;;;;;4996728;28;20180;-76
2021/05/21 03:10:48;;;;;;;480.20;331.38;;;;;;;;;;4979990;28;20031;-77
2021/05/21 03:13:14;;;;;;;478.27;328.65;;;;;;;;;;4981044;28;20042;-76
2021/05/21 03:15:42;;;;;;;479.17;328.48;;;;;;;;;;5003373;28;20058;-77
2021/05/21 03:18:12;;;;;;;480.73;326.45;;;;;;;;;;4998335;28;20029;-75
2021/05/21 03:20:39;;;;;;;481.02;323.67;;;;;;;;;;4996362;28;20037;-77
2021/05/21 03:23:05;;;;;;;477.88;324.75;;;;;;;;;;4997774;28;20088;-76
2021/05/21 03:25:30;;;;;;;483.27;322.45;;;;;;;;;;4982240;28;20038;-76
2021/05/21 03:27:56;;;;;;;477.60;324.48;;;;;;;;;;4978390;28;20099;-76
2021/05/21 03:30:22;;;;;;;478.25;320.60;;;;;;;;;;4978716;28;20038;-75
2021/05/21 03:32:48;;;;;;;485.55;327.13;;;;;;;;;;4995997;28;20047;-76
2021/05/21 03:35:14;;;;;;;491.58;334.90;;;;;;;;;;4982366;28;20150;-75
2021/05/21 03:37:40;;;;;;;488.77;325.10;;;;;;;;;;4980713;28;20473;-75
2021/05/21 03:40:07;;;;;;;482.02;321.10;;;;;;;;;;4975418;28;20023;-75
2021/05/21 03:42:33;;;;;;;483.83;321.63;;;;;;;;;;4990117;28;20033;-77
2021/05/21 03:44:59;;;;;;;480.80;312.70;;;;;;;;;;4976725;28;20030;-76
2021/05/21 03:47:25;;;;;;;490.92;326.00;;;;;;;;;;4994336;28;20034;-76
2021/05/21 03:49:51;;;;;;;491.45;323.10;;;;;;;;;;4980964;28;20029;-75
2021/05/21 03:52:17;;;;;;;496.98;327.02;;;;;;;;;;4979408;28;20033;-75
2021/05/21 03:54:43;;;;;;;496.90;325.95;;;;;;;;;;4994480;28;20030;-76
2021/05/21 03:57:10;;;;;;;528.70;345.33;;;;;;;;;;4980750;28;20037;-78
2021/05/21 03:59:36;;;;;;;535.67;344.02;;;;;;;;;;4994968;28;20018;-76
2021/05/21 04:02:02;;;;;;;531.58;348.73;;;;;;;;;;4977733;28;20023;-77
2021/05/21 04:04:28;;;;;;;508.70;332.98;;;;;;;;;;4991260;28;20136;-77
2021/05/21 04:06:53;;;;;;;511.17;333.48;;;;;;;;;;4978177;28;20079;-77
2021/05/21 04:09:19;;;;;;;506.13;328.65;;;;;;;;;;4994798;28;20018;-77
2021/05/21 04:11:45;;;;;;;501.23;323.55;;;;;;;;;;4976211;28;20691;-77
2021/05/21 04:14:11;;;;;;;511.13;325.58;;;;;;;;;;4984292;28;20070;-77
2021/05/21 04:16:37;;;;;;;505.52;326.00;;;;;;;;;;4978542;28;20034;-75
2021/05/21 04:19:03;;;;;;;506.52;322.73;;;;;;;;;;4977474;28;20022;-75
2021/05/21 04:21:29;;;;;;;503.17;323.52;;;;;;;;;;4996448;28;20057;-78
2021/05/21 04:23:56;;;;;;;515.63;328.05;;;;;;;;;;4975296;28;20018;-76
2021/05/21 04:26:22;;;;;;;557.92;346.33;;;;;;;;;;4975453;28;20547;-75
2021/05/21 04:28:49;;;;;;;503.45;320.92;;;;;;;;;;4996102;28;20047;-76
2021/05/21 04:31:18;;;;;;;513.72;327.83;;;;;;;;;;4999681;28;20049;-77
2021/05/21 04:33:45;;;;;;;509.35;324.73;;;;;;;;;;4991094;28;20025;-77
2021/05/21 04:36:11;;;;;;;499.88;325.42;;;;;;;;;;4973594;28;20022;-76
2021/05/21 04:38:37;;;;;;;504.35;330.05;;;;;;;;;;4973420;28;20448;-76
2021/05/21 04:41:04;;;;;;;503.88;324.25;;;;;;;;;;4996884;28;20033;-77
2021/05/21 04:43:30;;;;;;;504.25;325.63;;;;;;;;;;5002896;28;20078;-76
2021/05/21 04:45:56;;;;;;;510.95;334.60;;;;;;;;;;4973378;28;20045;-76
2021/05/21 04:48:22;;;;;;;511.08;328.38;;;;;;;;;;4993317;28;20105;-77
2021/05/21 04:50:48;;;;;;;510.10;327.98;;;;;;;;;;4988281;28;20137;-75
2021/05/21 04:53:14;;;;;;;517.13;340.02;;;;;;;;;;4978663;28;20032;-75
2021/05/21 04:55:41;;;;;;;514.58;338.40;;;;;;;;;;4996164;28;20025;-77
2021/05/21 04:58:07;;;;;;;518.38;339.30;;;;;;;;;;4976060;28;20129;-76
2021/05/21 05:00:33;;;;;;;514.05;347.80;;;;;;;;;;4995506;28;20019;-76
2021/05/21 05:03:17;;;;;;;508.65;335.73;;;;;;;;;;4972357;28;21829;-78
2021/05/21 05:05:43;;;;;;;503.00;317.88;;;;;;;;;;4986659;28;20120;-76
2021/05/21 05:08:09;;;;;;;519.03;334.15;;;;;;;;;;4992746;28;20064;-76
2021/05/21 05:10:36;;;;;;;515.10;337.30;;;;;;;;;;4978467;28;20038;-76
2021/05/21 05:13:02;;;;;;;513.00;335.73;;;;;;;;;;4994209;28;20105;-77
2021/05/21 05:15:32;;;;;;;521.85;344.17;;;;;;;;;;4974801;28;20026;-77
2021/05/21 05:17:58;;;;;;;529.25;336.95;;;;;;;;;;4976995;28;20026;-77
2021/05/21 05:20:24;;;;;;;538.50;334.50;;;;;;;;;;4976828;28;20498;-77
2021/05/21 05:22:52;;;;;;;557.60;365.58;;;;;;;;;;4991057;28;20040;-75
2021/05/21 05:25:18;;;;;;;570.05;374.77;;;;;;;;;;4980870;28;20034;-76
2021/05/21 05:27:44;;;;;;;503.17;334.95;;;;;;;;;;4983362;28;20109;-76
2021/05/21 05:30:10;;;;;;;499.83;331.42;;;;;;;;;;4976210;28;20118;-76
2021/05/21 05:32:36;;;;;;;492.40;325.33;;;;;;;;;;4971039;28;20037;-77
2021/05/21 05:35:03;;;;;;;476.70;320.60;;;;;;;;;;4992787;28;20026;-77
2021/05/21 05:37:29;;;;;;;492.35;336.25;;;;;;;;;;4996524;28;20029;-76
2021/05/21 05:39:55;;;;;;;481.15;324.55;;;;;;;;;;4977958;28;20484;-76
2021/05/21 05:42:21;;;;;;;482.45;326.67;;;;;;;;;;4995572;28;20117;-75
2021/05/21 05:44:47;;;;;;;488.25;331.52;;;;;;;;;;4976359;28;20065;-75
2021/05/21 05:47:13;;;;;;;488.98;339.95;;;;;;;;;;4999634;28;20030;-75
2021/05/21 05:49:39;;;;;;;483.90;324.58;;;;;;;;;;4972804;28;20025;-77
2021/05/21 05:52:05;;;;;;;489.05;331.55;;;;;;;;;;4990469;28;20050;-75
2021/05/21 05:54:31;;;;;;;486.73;333.63;;;;;;;;;;4994986;28;20105;-77
2021/05/21 05:56:57;;;;;;;489.35;336.17;;;;;;;;;;4997121;28;20522;-75
2021/05/21 05:59:25;;;;;;;494.08;336.23;;;;;;;;;;4976600;28;20117;-76
2021/05/21 06:01:51;;;;;;;493.08;327.40;;;;;;;;;;4995196;28;20087;-76
2021/05/21 06:04:17;;;;;;;494.30;333.77;;;;;;;;;;4998913;28;20046;-76
2021/05/21 06:06:43;;;;;;;501.58;341.40;;;;;;;;;;4994181;28;20090;-77
2021/05/21 06:09:09;;;;;;;500.42;338.23;;;;;;;;;;4974302;28;20030;-77
2021/05/21 06:11:38;;;;;;;507.33;345.55;;;;;;;;;;4977669;28;20033;-77
2021/05/21 06:14:05;;;;;;;512.13;344.70;;;;;;;;;;4980722;28;20025;-76
2021/05/21 06:16:31;;;;;;;514.20;346.42;;;;;;;;;;5000333;28;20018;-74
2021/05/21 06:18:57;;;;;;;520.92;354.77;;;;;;;;;;4992068;28;20026;-77
2021/05/21 06:21:23;;;;;;;525.78;361.90;;;;;;;;;;4998793;28;20014;-78
2021/05/21 06:23:49;;;;;;;526.33;359.55;;;;;;;;;;4980513;28;20029;-74
2021/05/21 06:28:53;;;;;;;537.72;372.52;;;;;;;;;;4996472;28;20112;-75
2021/05/21 06:31:20;;;;;;;529.72;352.38;;;;;;;;;;4981698;28;20069;-76
2021/05/21 06:33:46;;;;;;;526.65;363.90;;;;;;;;;;4978056;28;20030;-76
2021/05/21 06:36:12;;;;;;;522.97;357.40;;;;;;;;;;4981104;28;20036;-77
2021/05/21 06:38:38;;;;;;;524.13;355.52;;;;;;;;;;4975733;28;20023;-75
2021/05/21 06:41:06;;;;;;;527.55;363.35;;;;;;;;;;4982716;28;20030;-80
2021/05/21 06:43:32;;;;;;;516.05;357.10;;;;;;;;;;4995749;28;20053;-77
2021/05/21 06:45:58;;;;;;;524.10;359.85;;;;;;;;;;5006408;28;20108;-77
2021/05/21 06:48:34;;;;;;;525.70;365.52;;;;;;;;;;4992713;28;20586;-75
2021/05/21 06:51:01;;;;;;;526.28;360.27;;;;;;;;;;5005508;28;20036;-75
2021/05/21 06:53:28;;;;;;;528.90;371.92;;;;;;;;;;4982103;28;20022;-75
2021/05/21 06:55:54;;;;;;;522.00;355.85;;;;;;;;;;4990480;28;20348;-76
2021/05/21 06:58:21;;;;;;;529.85;366.65;;;;;;;;;;5002516;28;20041;-75
2021/05/21 07:00:50;;;;;;;538.83;373.33;;;;;;;;;;4992536;28;20025;-77
2021/05/21 07:03:16;;;;;;;530.05;360.70;;;;;;;;;;5002440;28;20037;-76
2021/05/21 07:05:43;;;;;;;524.90;361.92;;;;;;;;;;4982849;28;20066;-76
2021/05/21 07:08:12;;;;;;;522.88;363.80;;;;;;;;;;4971993;28;20049;-77
2021/05/21 07:10:38;;;;;;;513.80;357.60;;;;;;;;;;4979625;28;20502;-76
2021/05/21 07:13:08;;;;;;;516.83;355.02;;;;;;;;;;4983296;28;20031;-75
2021/05/21 07:15:34;;;;;;;523.35;363.77;;;;;;;;;;4981373;28;20049;-75
2021/05/21 07:18:00;;;;;;;525.30;360.38;;;;;;;;;;4969069;28;20054;-73
2021/05/21 07:20:26;;;;;;;522.97;359.33;;;;;;;;;;4976802;28;20043;-75
2021/05/21 07:22:52;;;;;;;518.45;354.20;;;;;;;;;;4978590;28;20116;-76
2021/05/21 07:25:18;;;;;;;521.80;363.25;;;;;;;;;;4981593;28;20054;-76
2021/05/21 07:27:44;;;;;;;527.63;373.48;;;;;;;;;;4973267;28;20030;-76
2021/05/21 07:30:10;;;;;;;524.88;369.48;;;;;;;;;;4979441;28;20030;-76
2021/05/21 07:32:36;;;;;;;520.55;363.33;;;;;;;;;;4976216;28;20050;-74
2021/05/21 07:35:03;;;;;;;525.13;375.02;;;;;;;;;;4978695;28;20049;-76
2021/05/21 07:37:29;;;;;;;532.53;380.10;;;;;;;;;;4981769;28;20050;-78
2021/05/21 07:39:55;;;;;;;527.53;372.98;;;;;;;;;;4972037;28;20037;-77
2021/05/21 07:42:21;;;;;;;532.42;381.40;;;;;;;;;;4974076;28;20023;-76
2021/05/21 07:44:48;;;;;;;529.78;376.05;;;;;;;;;;4974999;28;20409;-75
2021/05/21 07:47:15;;;;;;;529.33;375.88;;;;;;;;;;4986950;28;20026;-76
2021/05/21 07:49:41;;;;;;;535.03;382.77;;;;;;;;;;4978500;28;20022;-76
2021/05/21 07:52:07;;;;;;;536.40;383.27;;;;;;;;;;4974417;28;20041;-76
2021/05/21 07:54:33;;;;;;;537.63;388.50;;;;;;;;;;4973906;28;20029;-76
2021/05/21 07:56:59;;;;;;;532.00;369.00;;;;;;;;;;4977028;28;20101;-76
2021/05/21 07:59:25;;;;;;;545.33;389.73;;;;;;;;;;4993237;28;20030;-76
2021/05/21 08:01:51;;;;;;;538.10;383.75;;;;;;;;;;4990158;28;20026;-77
2021/05/21 08:04:17;;;;;;;546.63;397.52;;;;;;;;;;4992641;28;20371;-77
2021/05/21 08:06:43;;;;;;;549.47;389.15;;;;;;;;;;4994269;28;20044;-76
2021/05/21 08:09:09;;;;;;;557.63;400.10;;;;;;;;;;4989724;28;20026;-75
2021/05/21 08:11:35;;;;;;;555.45;402.10;;;;;;;;;;5000590;28;20515;-77
2021/05/21 08:14:01;;;;;;;582.22;413.15;;;;;;;;;;4991899;28;20062;-76
2021/05/21 08:16:28;;;;;;;543.63;394.90;;;;;;;;;;4978723;28;20019;-76
2021/05/21 08:18:55;;;;;;;549.13;395.02;;;;;;;;;;4980162;28;20014;-75
2021/05/21 08:21:22;;;;;;;568.15;408.30;;;;;;;;;;4974681;28;20057;-74
2021/05/21 08:23:48;;;;;;;568.60;403.52;;;;;;;;;;4976409;28;20031;-75
2021/05/21 08:26:14;;;;;;;553.60;399.60;;;;;;;;;;4987880;28;20033;-76
2021/05/21 08:28:42;;;;;;;546.22;398.30;;;;;;;;;;4985423;28;20026;-75
2021/05/21 08:31:08;;;;;;;544.72;385.80;;;;;;;;;;4974564;28;20444;-75
2021/05/21 08:33:39;;;;;;;546.55;396.10;;;;;;;;;;4977423;28;20030;-75
2021/05/21 08:36:07;;;;;;;546.38;395.80;;;;;;;;;;4968137;28;20034;-75
2021/05/21 08:38:32;;;;;;;552.40;395.10;;;;;;;;;;4980649;28;20022;-76
2021/05/21 08:40:59;;;;;;;557.80;413.83;;;;;;;;;;4970569;28;20011;-77
2021/05/21 08:43:25;;;;;;;531.30;391.80;;;;;;;;;;4985586;28;20492;-77
2021/05/21 08:45:51;;;;;;;520.75;378.55;;;;;;;;;;4996731;28;20423;-78
2021/05/21 08:48:18;;;;;;;525.13;376.25;;;;;;;;;;4974800;28;20079;-73
2021/05/21 08:50:44;;;;;;;530.75;382.20;;;;;;;;;;4978502;28;20499;-75
2021/05/21 08:53:12;;;;;;;537.55;374.42;;;;;;;;;;4979568;28;20026;-80
2021/05/21 08:55:37;;;;;;;546.75;375.45;;;;;;;;;;4987534;28;20031;-77
2021/05/21 08:58:03;;;;;;;545.03;389.27;;;;;;;;;;4969418;28;20042;-78
2021/05/21 09:00:29;;;;;;;542.75;389.02;;;;;;;;;;4978641;28;20034;-76
2021/05/21 09:02:55;;;;;;;548.08;392.50;;;;;;;;;;4984783;28;20030;-76
2021/05/21 09:05:21;;;;;;;555.47;408.98;;;;;;;;;;4970344;28;20046;-73
2021/05/21 09:07:47;;;;;;;564.40;422.65;;;;;;;;;;4958169;28;20467;-74
2021/05/21 09:10:18;;;;;;;548.60;410.08;;;;;;;;;;4964221;28;20022;-75
2021/05/21 09:12:48;;;;;;;547.67;412.80;;;;;;;;;;4962561;28;20334;-75
2021/05/21 09:15:18;;;;;;;546.92;405.30;;;;;;;;;;4964407;28;20062;-76
2021/05/21 09:17:44;;;;;;;;;;;;;;;;;;4971424;28;20607;-75
2021/05/21 09:20:21;;;;;;;546.05;388.73;;;;;;;;;;4965005;28;19916;-75
2021/05/21 09:22:58;;;;;;;542.25;387.08;;;;;;;;;;4968056;28;20353;-77
2021/05/21 09:25:37;;;;;;;542.20;385.35;;;;;;;;;;4965988;28;20026;-77
2021/05/21 09:28:03;;;;;;;550.78;406.52;;;;;;;;;;4962395;28;20046;-75
2021/05/21 09:30:29;;;;;;;542.72;392.75;;;;;;;;;;4956912;28;20030;-77
2021/05/21 09:33:06;;;;;;;544.30;378.35;;;;;;;;;;4951130;28;20049;-77
2021/05/21 09:35:33;;;;;;;541.78;383.13;;;;;;;;;;4980156;28;20027;-76
2021/05/21 09:37:59;;;;;;;548.35;382.13;;;;;;;;;;4955688;28;20069;-77
2021/05/21 09:40:29;;;;;;;551.63;386.92;;;;;;;;;;4952685;28;20019;-77
2021/05/21 09:42:58;;;;;;;547.17;394.23;;;;;;;;;;4962860;28;20022;-78
2021/05/21 09:45:34;;;;;;;549.50;380.90;;;;;;;;;;4955971;28;20149;-77
2021/05/21 09:48:02;;;;;;;556.25;393.17;;;;;;;;;;4952785;28;20057;-76
2021/05/21 09:50:44;;;;;;;561.20;403.27;;;;;;;;;;4958467;28;20065;-75
2021/05/21 09:53:12;;;;;;;570.03;411.08;;;;;;;;;;4960406;28;20037;-76
2021/05/21 09:55:40;;;;;;;560.35;389.17;;;;;;;;;;4969868;28;20019;-78
2021/05/21 09:58:06;;;;;;;560.65;385.58;;;;;;;;;;4958519;28;20023;-76
2021/05/21 10:00:32;;;;;;;546.08;383.85;;;;;;;;;;4958780;28;20031;-77
2021/05/21 10:02:58;;;;;;;550.08;384.23;;;;;;;;;;4956980;28;20074;-77
2021/05/21 10:05:24;;;;;;;542.22;393.88;;;;;;;;;;4997860;28;20050;-76
2021/05/21 10:07:54;;;;;;;536.97;375.17;;;;;;;;;;4981827;28;20034;-77
2021/05/21 10:10:23;;;;;;;549.50;391.55;;;;;;;;;;4981111;28;20026;-75
2021/05/21 10:12:49;;;;;;;529.78;366.63;;;;;;;;;;4985946;28;20030;-76
2021/05/21 10:15:24;;;;;;;539.83;377.23;;;;;;;;;;4994418;28;20322;-79
2021/05/21 10:17:50;;;;;;;538.80;377.90;;;;;;;;;;4978560;28;20527;-75
2021/05/21 10:20:18;;;;;;;539.95;385.75;;;;;;;;;;5008819;28;20089;-74
2021/05/21 10:22:45;;;;;;;542.58;391.55;;;;;;;;;;5001791;28;20604;-75
2021/05/21 10:25:24;;;;;;;545.03;393.67;;;;;;;;;;5014118;28;20030;-75
2021/05/21 10:27:51;;;;;;;562.50;411.23;;;;;;;;;;4979622;28;20126;-77
2021/05/21 10:30:20;;;;;;;542.80;395.85;;;;;;;;;;5009837;28;20028;-78
2021/05/21 10:32:47;;;;;;;549.58;412.33;;;;;;;;;;5012044;28;20464;-74
2021/05/21 10:35:17;;;;;;;546.78;420.73;;;;;;;;;;4986519;28;20052;-75
2021/05/21 10:37:44;;;;;;;561.85;426.27;;;;;;;;;;4983384;28;20082;-75
2021/05/21 10:40:15;;;;;;;562.50;428.75;;;;;;;;;;5001472;28;21202;-74
2021/05/21 10:42:49;;;;;;;571.28;441.73;;;;;;;;;;4993128;28;20502;-73
2021/05/21 10:45:22;;;;;;;559.20;424.02;;;;;;;;;;4978578;28;21094;-75
2021/05/21 10:48:06;;;;;;;561.08;424.23;;;;;;;;;;5021192;28;20129;-75
2021/05/21 10:50:39;;;;;;;553.92;408.83;;;;;;;;;;4996091;28;20444;-75
2021/05/21 10:53:09;;;;;;;555.22;409.95;;;;;;;;;;5012667;28;20028;-75
2021/05/21 10:55:47;;;;;;;560.55;424.17;;;;;;;;;;5017785;28;20029;-75
2021/05/21 10:58:17;;;;;;;578.78;458.35;;;;;;;;;;5010827;28;20030;-76
2021/05/21 11:01:03;;;;;;;543.47;429.17;;;;;;;;;;4999249;28;20024;-77
2021/05/21 11:03:29;;;;;;;514.25;395.92;;;;;;;;;;4979668;28;20054;-74
2021/05/21 11:06:15;;;;;;;511.70;388.83;;;;;;;;;;5013765;28;20033;-75
2021/05/21 11:08:47;;;;;;;509.98;385.88;;;;;;;;;;5002443;28;20122;-76
2021/05/21 11:11:15;;;;;;;506.30;375.50;;;;;;;;;;4998473;28;20059;-76
2021/05/21 11:13:42;;;;;;;502.77;372.40;;;;;;;;;;4985930;28;20109;-75
2021/05/21 11:16:12;;;;;;;500.52;356.20;;;;;;;;;;4985183;28;20018;-74
2021/05/21 11:18:48;;;;;;;497.90;353.33;;;;;;;;;;4982776;28;20040;-76
2021/05/21 11:21:19;;;;;;;505.08;379.88;;;;;;;;;;4992450;28;20444;-74
2021/05/21 11:23:45;;;;;;;510.55;410.73;;;;;;;;;;4993501;28;20519;-75
2021/05/21 11:26:14;;;;;;;515.72;439.63;;;;;;;;;;4990415;28;20037;-76
2021/05/21 11:28:41;;;;;;;519.75;454.55;;;;;;;;;;4984871;28;20022;-75
2021/05/21 11:31:08;;;;;;;528.70;470.33;;;;;;;;;;4981705;28;20022;-76
2021/05/21 11:33:34;;;;;;;527.63;468.95;;;;;;;;;;4978331;28;20140;-76
2021/05/21 11:36:01;;;;;;;534.78;475.77;;;;;;;;;;4998227;28;20037;-76
2021/05/21 11:38:27;;;;;;;554.33;494.20;;;;;;;;;;4995064;28;20087;-76
2021/05/21 11:40:53;;;;;;;571.97;510.85;;;;;;;;;;4991136;28;20402;-75
2021/05/21 11:43:26;;;;;;;594.67;532.03;;;;;;;;;;4985110;28;20030;-77
2021/05/21 11:45:53;;;;;;;604.78;540.67;;;;;;;;;;4998173;28;20452;-76
2021/05/21 11:48:31;;;;;;;574.08;512.42;;;;;;;;;;5003480;28;20029;-75
2021/05/21 11:50:57;;;;;;;566.85;505.35;;;;;;;;;;4998159;28;20482;-76
2021/05/21 11:53:23;;;;;;;559.67;497.60;;;;;;;;;;5001354;28;20034;-77
2021/05/21 11:55:50;;;;;;;542.40;464.20;;;;;;;;;;4998540;28;20022;-77
2021/05/21 11:58:22;;;;;;;542.83;438.10;;;;;;;;;;4996089;28;20095;-78
2021/05/21 12:00:58;;;;;;;541.97;416.95;;;;;;;;;;4993759;28;20386;-77
2021/05/21 12:03:25;;;;;;;534.67;402.58;;;;;;;;;;4989604;28;20018;-77
2021/05/21 12:05:50;;;;;;;538.35;399.63;;;;;;;;;;4984035;28;20053;-75
2021/05/21 12:08:16;;;;;;;528.10;389.20;;;;;;;;;;5001215;28;20527;-77
2021/05/21 12:10:53;;;;;;;548.55;432.92;;;;;;;;;;5008073;28;20072;-76
2021/05/21 12:13:19;;;;;;;538.20;438.20;;;;;;;;;;5001455;28;20052;-77
2021/05/21 12:15:45;;;;;;;538.75;444.83;;;;;;;;;;4996629;28;20014;-76
2021/05/21 12:18:11;;;;;;;545.95;461.05;;;;;;;;;;4997741;28;20034;-76
2021/05/21 12:20:37;;;;;;;552.70;488.92;;;;;;;;;;5001284;28;20454;-78
2021/05/21 12:23:07;;;;;;;568.00;505.90;;;;;;;;;;5000950;28;20055;-77
2021/05/21 12:25:35;;;;;;;603.33;538.53;;;;;;;;;;4996417;28;20139;-77
2021/05/21 12:28:01;;;;;;;605.20;540.15;;;;;;;;;;5003597;28;20637;-76
2021/05/21 12:30:28;;;;;;;593.83;528.95;;;;;;;;;;4994954;28;20087;-76
2021/05/21 12:32:54;;;;;;;562.33;500.23;;;;;;;;;;5005095;28;20111;-78
2021/05/21 12:35:34;;;;;;;559.00;486.45;;;;;;;;;;5031715;28;20045;-77
2021/05/21 12:38:02;;;;;;;546.25;454.50;;;;;;;;;;5045057;28;20451;-75
2021/05/21 12:40:28;;;;;;;536.00;425.80;;;;;;;;;;5000908;28;20542;-75
2021/05/21 12:42:54;;;;;;;542.42;424.13;;;;;;;;;;4998216;28;20018;-76
2021/05/21 12:45:20;;;;;;;533.45;397.60;;;;;;;;;;5005913;28;20042;-76
2021/05/21 12:47:47;;;;;;;548.53;406.77;;;;;;;;;;5006054;28;20032;-76
2021/05/21 12:50:14;;;;;;;546.22;401.80;;;;;;;;;;5002028;28;20029;-76
2021/05/21 12:52:59;;;;;;;545.95;393.40;;;;;;;;;;5015161;28;20052;-75
2021/05/21 12:55:25;;;;;;;543.33;391.40;;;;;;;;;;5019826;28;20026;-76
2021/05/21 12:57:54;;;;;;;541.58;379.90;;;;;;;;;;5037864;28;20049;-75
2021/05/21 13:00:21;;;;;;;560.22;394.92;;;;;;;;;;5000055;28;20032;-75
2021/05/21 13:02:54;;;;;;;550.40;392.17;;;;;;;;;;5001086;28;20097;-75
2021/05/21 13:05:22;;;;;;;529.33;398.17;;;;;;;;;;5017412;28;20126;-75
2021/05/21 13:08:04;;;;;;;535.05;427.48;;;;;;;;;;4977576;28;20022;-76
2021/05/21 13:10:36;;;;;;;534.58;429.80;;;;;;;;;;4995911;28;20018;-76
2021/05/21 13:13:03;;;;;;;552.30;439.58;;;;;;;;;;4994856;28;20431;-76
2021/05/21 13:15:30;;;;;;;537.55;415.58;;;;;;;;;;4979803;28;20042;-76
2021/05/21 13:17:58;;;;;;;533.42;405.55;;;;;;;;;;4973571;28;20450;-75
2021/05/21 13:20:28;;;;;;;519.35;396.00;;;;;;;;;;4990599;28;20093;-76
2021/05/21 13:22:58;;;;;;;521.50;404.55;;;;;;;;;;4992796;28;20022;-76
2021/05/21 13:25:31;;;;;;;541.08;443.55;;;;;;;;;;4985136;28;20034;-73
2021/05/21 13:28:00;;;;;;;529.22;438.88;;;;;;;;;;4998736;28;20389;-74
2021/05/21 13:30:26;;;;;;;534.45;443.05;;;;;;;;;;5000628;28;20127;-78
2021/05/21 13:32:53;;;;;;;516.10;420.00;;;;;;;;;;4973810;28;20080;-75
2021/05/21 13:35:22;;;;;;;518.10;416.45;;;;;;;;;;5043189;28;20060;-76
2021/05/21 13:37:51;;;;;;;517.83;413.48;;;;;;;;;;4994920;28;20347;-76
2021/05/21 13:40:18;;;;;;;519.55;402.27;;;;;;;;;;4988963;28;20431;-76
2021/05/21 13:42:44;;;;;;;556.72;400.58;;;;;;;;;;4987098;28;20103;-76
2021/05/21 13:45:10;;;;;;;521.75;392.08;;;;;;;;;;4975596;28;20044;-77
2021/05/21 13:47:36;;;;;;;580.70;447.98;;;;;;;;;;4984339;28;20022;-76
2021/05/21 13:50:04;;;;;;;616.92;479.92;;;;;;;;;;5008365;28;20033;-76
2021/05/21 13:52:30;;;;;;;666.10;514.63;;;;;;;;;;5009780;28;20013;-77
2021/05/21 13:54:56;;;;;;;600.60;476.98;;;;;;;;;;4999388;28;20034;-78
2021/05/21 13:57:22;;;;;;;587.03;473.85;;;;;;;;;;5004519;28;20037;-77